Time,TemperatureF,DewpointF,PressureIn,WindDirection,WindDirectionDegrees,WindSpeedMPH,WindSpeedGustMPH,Humidity,HourlyPrecipIn,Conditions,Clouds,dailyrainin,SoftwareType,DateUTC
2013-03-20 00:23:00,61.0,-99.9,-100.00,North,10,6.0,-999.0,101,0.00,,,-99.99,,2013-03-20 05:23:00,
2013-03-20 00:33:00,61.0,-99.9,-100.00,North,10,6.0,-999.0,101,0.00,,,-99.99,,2013-03-20 05:33:00,
2013-03-20 00:43:00,61.0,-99.9,-100.00,North,10,6.0,-999.0,101,0.00,,,-99.99,,2013-03-20 05:43:00,
2013-03-20 01:22:00,60.0,52.0,-100.00,NNE,22,5.0,-999.0,74,0.00,,,-99.99,,2013-03-20 06:22:00,
2013-03-20 01:32:00,60.0,52.0,-100.00,NNE,22,5.0,-999.0,74,0.00,,,-99.99,,2013-03-20 06:32:00,
2013-03-20 01:42:00,60.0,52.0,-100.00,NNE,22,5.0,-999.0,74,0.00,,,-99.99,,2013-03-20 06:42:00,
2013-03-20 02:22:00,59.0,48.0,-100.00,NE,34,6.0,-999.0,67,0.00,,,-99.99,,2013-03-20 07:22:00,
2013-03-20 02:32:00,59.0,48.0,-100.00,NE,34,6.0,-999.0,67,0.00,,,-99.99,,2013-03-20 07:32:00,
2013-03-20 02:42:00,59.0,48.0,-100.00,NE,34,6.0,-999.0,67,0.00,,,-99.99,,2013-03-20 07:42:00,
2013-03-20 03:22:00,58.0,46.0,-100.00,North,10,7.0,-999.0,64,0.00,,,-99.99,,2013-03-20 08:22:00,
2013-03-20 03:32:00,58.0,46.0,-100.00,North,10,7.0,-999.0,64,0.00,,,-99.99,,2013-03-20 08:32:00,
2013-03-20 03:42:00,58.0,46.0,-100.00,North,10,7.0,-999.0,64,0.00,,,-99.99,,2013-03-20 08:42:00,
2013-03-20 04:22:00,59.0,45.0,-100.00,NNE,29,8.0,-999.0,59,0.00,,,-99.99,,2013-03-20 09:22:00,
2013-03-20 04:33:00,59.0,45.0,-100.00,NNE,29,8.0,-999.0,59,0.00,,,-99.99,,2013-03-20 09:33:00,
2013-03-20 04:43:00,59.0,45.0,-100.00,NNE,29,8.0,-999.0,59,0.00,,,-99.99,,2013-03-20 09:43:00,
2013-03-20 05:23:00,58.0,44.0,-100.00,NNE,22,7.0,-999.0,60,0.00,,,-99.99,,2013-03-20 10:23:00,
2013-03-20 05:33:00,58.0,44.0,-100.00,NNE,22,7.0,-999.0,60,0.00,,,-99.99,,2013-03-20 10:33:00,
2013-03-20 05:42:00,58.0,44.0,-100.00,NNE,22,7.0,-999.0,60,0.00,,,-99.99,,2013-03-20 10:42:00,
2013-03-20 06:22:00,57.0,41.0,-100.00,North,11,10.0,-999.0,56,0.00,,,-99.99,,2013-03-20 11:22:00,
2013-03-20 06:32:00,57.0,41.0,-100.00,North,11,10.0,-999.0,56,0.00,,,-99.99,,2013-03-20 11:32:00,
2013-03-20 06:42:00,57.0,41.0,-100.00,North,11,10.0,-999.0,56,0.00,,,-99.99,,2013-03-20 11:42:00,
2013-03-20 07:22:00,57.0,40.0,-100.00,North,9,9.0,-999.0,54,0.00,,,-99.99,,2013-03-20 12:22:00,
2013-03-20 07:32:00,57.0,40.0,-100.00,North,9,9.0,-999.0,54,0.00,,,-99.99,,2013-03-20 12:32:00,
2013-03-20 07:42:00,57.0,40.0,-100.00,North,9,9.0,-999.0,54,0.00,,,-99.99,,2013-03-20 12:42:00,
2013-03-20 08:22:00,56.0,41.0,-100.00,NNE,23,10.0,-999.0,56,0.00,,,-99.99,,2013-03-20 13:22:00,
2013-03-20 08:32:00,56.0,41.0,-100.00,NNE,23,10.0,-999.0,56,0.00,,,-99.99,,2013-03-20 13:32:00,
2013-03-20 08:42:00,56.0,41.0,-100.00,NNE,23,10.0,-999.0,56,0.00,,,-99.99,,2013-03-20 13:42:00,
2013-03-20 09:23:00,56.0,40.0,-100.00,NNE,26,14.0,-999.0,55,0.00,,,-99.99,,2013-03-20 14:23:00,
2013-03-20 09:33:00,56.0,40.0,-100.00,NNE,26,14.0,-999.0,55,0.00,,,-99.99,,2013-03-20 14:33:00,
2013-03-20 09:42:00,56.0,40.0,-100.00,NNE,26,14.0,-999.0,55,0.00,,,-99.99,,2013-03-20 14:42:00,
2013-03-20 10:22:00,59.0,38.0,-100.00,NNE,24,12.0,-999.0,46,0.00,,,-99.99,,2013-03-20 15:22:00,
2013-03-20 10:33:00,59.0,38.0,-100.00,NNE,24,12.0,-999.0,46,0.00,,,-99.99,,2013-03-20 15:33:00,
2013-03-20 10:43:00,59.0,38.0,-100.00,NNE,24,12.0,-999.0,46,0.00,,,-99.99,,2013-03-20 15:43:00,
2013-03-20 11:23:00,59.0,38.0,-100.00,NE,42,9.0,-999.0,46,0.00,,,-99.99,,2013-03-20 16:23:00,
2013-03-20 11:33:00,59.0,38.0,-100.00,NE,42,9.0,-999.0,46,0.00,,,-99.99,,2013-03-20 16:33:00,
2013-03-20 11:43:00,59.0,38.0,-100.00,NE,42,9.0,-999.0,46,0.00,,,-99.99,,2013-03-20 16:43:00,
2013-03-20 12:22:00,58.0,42.0,-100.00,North,349,3.0,-999.0,57,0.00,,,-99.99,,2013-03-20 17:22:00,
2013-03-20 12:32:00,58.0,42.0,-100.00,North,349,3.0,-999.0,57,0.00,,,-99.99,,2013-03-20 17:32:00,
2013-03-20 12:42:00,58.0,42.0,-100.00,North,349,3.0,-999.0,57,0.00,,,-99.99,,2013-03-20 17:42:00,
2013-03-20 13:22:00,57.0,43.0,-100.00,NNW,340,7.0,-999.0,58,0.00,,,-99.99,,2013-03-20 18:22:00,
2013-03-20 13:33:00,57.0,43.0,-100.00,NNW,340,7.0,-999.0,58,0.00,,,-99.99,,2013-03-20 18:33:00,
2013-03-20 13:42:00,57.0,43.0,-100.00,NNW,340,7.0,-999.0,58,0.00,,,-99.99,,2013-03-20 18:42:00,
2013-03-20 14:22:00,58.0,45.0,-100.00,NNW,343,10.0,-999.0,61,0.00,,,-99.99,,2013-03-20 19:22:00,
2013-03-20 14:32:00,58.0,45.0,-100.00,NNW,343,10.0,-999.0,61,0.00,,,-99.99,,2013-03-20 19:32:00,
2013-03-20 14:42:00,58.0,45.0,-100.00,NNW,343,10.0,-999.0,61,0.00,,,-99.99,,2013-03-20 19:42:00,
2013-03-20 15:22:00,60.0,43.0,-100.00,North,10,13.0,-999.0,52,0.00,,,-99.99,,2013-03-20 20:22:00,
2013-03-20 15:32:00,60.0,43.0,-100.00,North,10,13.0,-999.0,52,0.00,,,-99.99,,2013-03-20 20:32:00,
2013-03-20 15:42:00,60.0,43.0,-100.00,North,10,13.0,-999.0,52,0.00,,,-99.99,,2013-03-20 20:42:00,
2013-03-20 16:22:00,64.0,39.0,-100.00,North,349,13.0,-999.0,41,0.00,,,-99.99,,2013-03-20 21:22:00,
2013-03-20 16:33:00,64.0,39.0,-100.00,North,349,13.0,-999.0,41,0.00,,,-99.99,,2013-03-20 21:33:00,
2013-03-20 16:42:00,64.0,39.0,-100.00,North,349,13.0,-999.0,41,0.00,,,-99.99,,2013-03-20 21:42:00,
2013-03-20 17:23:00,64.0,37.0,-100.00,North,353,15.0,-999.0,36,0.00,,,-99.99,,2013-03-20 22:23:00,
2013-03-20 17:33:00,64.0,37.0,-100.00,North,353,15.0,-999.0,36,0.00,,,-99.99,,2013-03-20 22:33:00,
2013-03-20 17:42:00,64.0,37.0,-100.00,North,353,15.0,-999.0,36,0.00,,,-99.99,,2013-03-20 22:42:00,
2013-03-20 18:22:00,64.0,34.0,-100.00,NNE,12,13.0,-999.0,33,0.00,,,-99.99,,2013-03-20 23:22:00,
2013-03-20 18:32:00,64.0,34.0,-100.00,NNE,12,13.0,-999.0,33,0.00,,,-99.99,,2013-03-20 23:32:00,
2013-03-20 18:42:00,64.0,34.0,-100.00,NNE,12,13.0,-999.0,33,0.00,,,-99.99,,2013-03-20 23:42:00,
2013-03-20 19:23:00,62.0,37.0,-100.00,North,358,7.0,-999.0,39,0.00,,,-99.99,,2013-03-21 00:23:00,
2013-03-20 19:33:00,62.0,37.0,-100.00,North,358,7.0,-999.0,39,0.00,,,-99.99,,2013-03-21 00:33:00,
2013-03-20 19:42:00,62.0,37.0,-100.00,North,358,7.0,-999.0,39,0.00,,,-99.99,,2013-03-21 00:42:00,
2013-03-20 20:22:00,58.0,41.0,-100.00,North,356,4.0,-999.0,53,0.00,,,-99.99,,2013-03-21 01:22:00,
2013-03-20 20:32:00,58.0,41.0,-100.00,North,356,4.0,-999.0,53,0.00,,,-99.99,,2013-03-21 01:32:00,
2013-03-20 20:42:00,58.0,41.0,-100.00,North,356,4.0,-999.0,53,0.00,,,-99.99,,2013-03-21 01:42:00,
2013-03-20 21:22:00,57.0,39.0,-100.00,North,352,3.0,-999.0,51,0.00,,,-99.99,,2013-03-21 02:22:00,
2013-03-20 21:32:00,57.0,39.0,-100.00,North,352,3.0,-999.0,51,0.00,,,-99.99,,2013-03-21 02:32:00,
2013-03-20 21:42:00,57.0,39.0,-100.00,North,352,3.0,-999.0,51,0.00,,,-99.99,,2013-03-21 02:42:00,
2013-03-20 22:22:00,56.0,40.0,-100.00,NW,321,3.0,-999.0,53,0.00,,,-99.99,,2013-03-21 03:22:00,
2013-03-20 22:33:00,56.0,40.0,-100.00,NW,321,3.0,-999.0,53,0.00,,,-99.99,,2013-03-21 03:33:00,
2013-03-20 22:43:00,56.0,40.0,-100.00,NW,321,3.0,-999.0,53,0.00,,,-99.99,,2013-03-21 03:43:00,
2013-03-20 23:23:00,54.0,44.0,-100.00,NNW,333,3.0,-999.0,69,0.00,,,-99.99,,2013-03-21 04:23:00,
2013-03-20 23:33:00,54.0,44.0,-100.00,NNW,333,3.0,-999.0,69,0.00,,,-99.99,,2013-03-21 04:33:00,
2013-03-20 23:43:00,54.0,44.0,-100.00,NNW,333,3.0,-999.0,69,0.00,,,-99.99,,2013-03-21 04:43:00,